Dyess Air Force Base
KDYS : now visible

Airfield :











YOU CAN JOIN US ON...

 
LOGIN :

Register | Disclaimer

   EN    FR    IT 

 









Legend :    VFR   Marginal VFR   IFR   Intensive IFR   Very Intensive IFR
Visi :
Ceiling :
>= 8 km
>= 3000ft
5 to 8 km
1000 to 3000 ft
1500m to 5 km
500 to 1000 ft
800 to 1500m
200 to 500 ft
< 800m
< 200 ft
Symbols :   Thunderstorms  Fog  Heavy snow  Heavy precipitations  Wind > 20 kt






- Airport Elevation : 1789 ft


KDYS - Dyess Air Force Base

CURRENT METAR :
  • 260456Z AUTO 16009KT 10SM CLR 23/16 A2989 RMK AO2 SLP081 T02300158

EXPIRED METARs :
  • 260356Z AUTO 16008KT 10SM CLR 24/15 A2989 RMK AO2 SLPNO T02360154
  • 260256Z AUTO 15007KT 10SM CLR 24/14 A2989 RMK AO2 SLP088 T02350136 50006

TAF TAF KDYS
Valid from the 26 at 04:00 until the 27 at 10:00 UTC


260408Z 2604/2710 16009KT 9999 SKC QNH2983INS
BECMG 2608/2609 18015G25KT 9999 FEW005 QNH2981INS
BECMG 2614/2615 17025G35KT 9999 BKN010 QNH2970INS
BECMG 2700/2701 VRB25G35KT 4800 TSRAGR SCT030 OVC160CB QNH2951INS
BECMG 2707/2708 28010KT 9999 NSW BKN040 QNH2959INS TX32/2621Z TN20/2613Z
KZFW FIR / North America



MET'MAP, your aeronautical weather chart ! - Copyright ORBIFLY December 2007 - Disclaimer

ORBIFLY MET'MAP TEAM :

Programming & Development : Alexandra Zaïnal
Concept & original design : Baudouin d'Aumeries
Assistance for programming : Marc-Olivier Méhu
Technical & hardware support : Manuel Goepfert

Contact : metmap@orbifly.com




SOURCES & CREDITS :

   NOAA       Earth
Advisory